Flower Mound, Texas
Current Conditions -  °F | °C
As of 11:53 PM on Tuesday 21 Oct 2014 (Local Time) from KDFW Reporting Station
Clear Clear  
Wind Chill: 67°   Ceiling: Unl
Heat Index: 67°   Visibility: 10mi
Dew Point: 58°   Wind: 5mph
Humidity: 73%   Direction: 140°SE
Pressure: 30.07"   Gusts: NA
Location:  33.03°N, 97.06°W
Report Text: KDFW 220453Z 14004KT 10SM CLR 19/14 A3007 RMK AO2 SLP175 T01940144
Loading
Personal Weather Stations






























Interactive Weather Map
Tropical Storm Tracking
New forecast layout! Learn more

10-Day Weather Forecast

Advertisements
Track Severe Weather on mobile